createdAt,value
2019-01-20T00:00:14.159Z,15.13
2019-01-20T00:02:42.744Z,14.03
2019-01-20T00:05:12.976Z,13.70
2019-01-20T00:07:41.566Z,14.17
2019-01-20T00:10:12.222Z,14.43
2019-01-20T00:12:40.804Z,14.20
2019-01-20T00:15:15.605Z,13.70
2019-01-20T00:17:44.573Z,13.13
2019-01-20T00:20:13.617Z,15.30
2019-01-20T00:22:42.191Z,15.47
2019-01-20T00:25:11.603Z,13.63
2019-01-20T00:27:40.232Z,15.17
2019-01-20T00:30:11.850Z,15.47
2019-01-20T00:32:40.470Z,14.53
2019-01-20T00:35:09.294Z,14.40
2019-01-20T00:37:37.978Z,14.53
2019-01-20T00:40:09.721Z,14.27
2019-01-20T00:42:38.689Z,14.00
2019-01-20T00:45:10.825Z,14.67
2019-01-20T00:47:39.436Z,13.67
2019-01-20T00:50:10.763Z,14.20
2019-01-20T00:52:39.452Z,14.50
2019-01-20T00:55:11.184Z,12.57
2019-01-20T00:57:41.073Z,13.07
2019-01-20T01:00:19.366Z,14.70
2019-01-20T01:02:48.210Z,13.43
2019-01-20T01:05:17.343Z,13.73
2019-01-20T01:07:46.213Z,13.43
2019-01-20T01:10:15.039Z,14.40
2019-01-20T01:12:44.082Z,13.93
2019-01-20T01:15:12.741Z,12.83
2019-01-20T01:17:41.357Z,14.67
2019-01-20T01:20:13.004Z,13.40
2019-01-20T01:22:41.890Z,14.07
2019-01-20T01:25:12.120Z,13.70
2019-01-20T01:27:40.997Z,14.70
2019-01-20T01:30:15.504Z,13.37
2019-01-20T01:32:44.260Z,13.33
2019-01-20T01:35:13.386Z,13.87
2019-01-20T01:38:09.383Z,14.53
2019-01-20T01:40:37.972Z,15.87
2019-01-20T01:43:06.605Z,16.23
2019-01-20T01:45:35.213Z,15.03
2019-01-20T01:48:03.904Z,14.97
2019-01-20T01:50:32.509Z,14.57
2019-01-20T01:53:01.113Z,14.87
2019-01-20T01:55:29.712Z,13.40
2019-01-20T01:57:58.329Z,14.70
2019-01-20T02:00:26.901Z,13.83
2019-01-20T02:02:55.521Z,14.37
2019-01-20T02:05:24.530Z,14.70
2019-01-20T02:07:53.162Z,14.87
2019-01-20T02:10:22.523Z,13.57
2019-01-20T02:12:51.448Z,13.90
2019-01-20T02:15:22.015Z,14.00
2019-01-20T02:17:51.132Z,12.93
2019-01-20T02:20:22.774Z,14.43
2019-01-20T02:22:51.593Z,14.43
2019-01-20T02:25:20.402Z,14.10
2019-01-20T02:27:49.931Z,13.83
2019-01-20T02:30:21.465Z,12.97
2019-01-20T02:32:50.045Z,13.87
2019-01-20T02:35:18.675Z,13.93
2019-01-20T02:37:47.320Z,13.73
2019-01-20T02:40:17.290Z,14.23
2019-01-20T02:42:45.882Z,14.60
2019-01-20T02:45:15.944Z,15.23
2019-01-20T02:47:44.778Z,14.00
2019-01-20T02:50:15.630Z,15.13
2019-01-20T02:52:44.221Z,14.60
2019-01-20T02:55:13.181Z,14.27
2019-01-20T02:57:42.112Z,13.93
2019-01-20T03:00:19.160Z,15.10
2019-01-20T03:03:08.483Z,16.27
2019-01-20T03:05:37.114Z,14.03
2019-01-20T03:08:05.690Z,14.47
2019-01-20T03:10:34.318Z,15.27
2019-01-20T03:13:02.886Z,14.80
2019-01-20T03:15:31.517Z,14.27
2019-01-20T03:18:00.171Z,13.97
2019-01-20T03:20:28.793Z,15.57
2019-01-20T03:22:57.423Z,14.10
2019-01-20T03:25:25.998Z,13.13
2019-01-20T03:27:54.564Z,13.57
2019-01-20T03:30:23.509Z,14.37
2019-01-20T03:32:52.178Z,13.77
2019-01-20T03:35:22.990Z,14.00
2019-01-20T03:37:54.342Z,13.43
2019-01-20T03:40:23.098Z,13.50
2019-01-20T03:42:51.754Z,12.73
2019-01-20T03:45:21.397Z,12.07
2019-01-20T03:47:50.317Z,14.23
2019-01-20T03:50:19.088Z,12.20
2019-01-20T03:52:47.848Z,12.70
2019-01-20T03:55:18.106Z,12.73
2019-01-20T03:57:46.768Z,12.63
2019-01-20T04:00:17.669Z,13.23
2019-01-20T04:02:48.107Z,13.00
2019-01-20T04:05:16.724Z,11.30
2019-01-20T04:07:45.389Z,12.57
2019-01-20T04:10:15.834Z,13.87
2019-01-20T04:12:44.496Z,12.47
2019-01-20T04:15:15.104Z,12.87
2019-01-20T04:17:43.858Z,13.20
2019-01-20T04:20:14.274Z,12.80
2019-01-20T04:22:42.843Z,13.33
2019-01-20T04:25:14.515Z,13.27
2019-01-20T04:27:43.109Z,12.70
2019-01-20T04:30:14.217Z,13.00
2019-01-20T04:32:42.733Z,13.67
2019-01-20T04:35:11.896Z,13.53
2019-01-20T04:37:40.472Z,14.43
2019-01-20T04:40:11.917Z,13.73
2019-01-20T04:42:40.916Z,13.70
2019-01-20T04:45:12.330Z,15.33
2019-01-20T04:47:40.859Z,14.13
2019-01-20T04:50:12.790Z,14.30
2019-01-20T04:52:41.894Z,14.87
2019-01-20T04:55:12.445Z,14.43
2019-01-20T04:57:42.125Z,15.60
2019-01-20T05:00:14.142Z,15.07
2019-01-20T05:02:42.901Z,15.03
2019-01-20T05:05:11.615Z,16.07
2019-01-20T05:07:40.261Z,16.80
2019-01-20T05:10:11.829Z,17.13
2019-01-20T05:12:40.397Z,15.77
2019-01-20T05:15:17.758Z,16.73
2019-01-20T05:17:46.516Z,16.57
2019-01-20T05:20:15.358Z,15.93
2019-01-20T05:22:43.934Z,16.97
2019-01-20T05:25:13.240Z,16.47
2019-01-20T05:27:41.862Z,15.37
2019-01-20T05:30:21.776Z,17.60
2019-01-20T05:32:50.612Z,14.93
2019-01-20T05:35:19.195Z,15.37
2019-01-20T05:37:47.818Z,16.70
2019-01-20T05:40:18.490Z,16.33
2019-01-20T05:42:47.585Z,16.60
2019-01-20T05:45:18.403Z,16.17
2019-01-20T05:47:47.054Z,17.73
2019-01-20T05:50:16.197Z,16.80
2019-01-20T05:52:44.836Z,17.33
2019-01-20T05:55:14.745Z,17.00
2019-01-20T05:57:43.441Z,17.33
2019-01-20T06:00:18.740Z,15.70
2019-01-20T06:02:47.353Z,15.80
2019-01-20T06:05:16.006Z,15.97
2019-01-20T06:07:44.802Z,14.17
2019-01-20T06:10:14.276Z,15.93
2019-01-20T06:12:42.975Z,17.97
2019-01-20T06:15:17.003Z,17.93
2019-01-20T06:17:45.737Z,18.73
2019-01-20T06:20:15.252Z,16.20
2019-01-20T06:22:43.934Z,15.03
2019-01-20T06:25:12.776Z,14.87
2019-01-20T06:27:41.376Z,14.07
2019-01-20T06:30:17.226Z,15.17
2019-01-20T06:32:45.838Z,14.97
2019-01-20T06:35:14.774Z,14.07
2019-01-20T06:37:43.549Z,14.63
2019-01-20T06:40:12.564Z,13.57
2019-01-20T06:42:41.177Z,12.90
2019-01-20T06:45:11.789Z,13.23
2019-01-20T06:47:40.406Z,13.07
2019-01-20T06:50:17.647Z,13.93
2019-01-20T06:52:46.247Z,12.80
2019-01-20T06:55:14.958Z,12.93
2019-01-20T06:57:43.756Z,16.07
2019-01-20T07:00:18.033Z,15.03
2019-01-20T07:02:46.641Z,14.23
2019-01-20T07:05:15.433Z,14.20
2019-01-20T07:07:44.171Z,14.70
2019-01-20T07:10:17.690Z,14.43
2019-01-20T07:12:46.371Z,14.63
2019-01-20T07:15:20.222Z,14.30
2019-01-20T07:17:48.895Z,14.40
2019-01-20T07:20:17.609Z,14.47
2019-01-20T07:22:46.185Z,14.77
2019-01-20T07:25:14.777Z,15.83
2019-01-20T07:27:43.378Z,16.47
2019-01-20T07:30:15.009Z,14.80
2019-01-20T07:32:43.587Z,14.90
2019-01-20T07:35:12.834Z,14.07
2019-01-20T07:37:41.427Z,15.07
2019-01-20T07:40:18.554Z,14.63
2019-01-20T07:42:47.146Z,14.90
2019-01-20T07:45:17.299Z,13.10
2019-01-20T07:47:45.877Z,14.37
2019-01-20T07:50:17.294Z,14.80
2019-01-20T07:52:45.869Z,15.10
2019-01-20T07:55:14.597Z,14.53
2019-01-20T07:57:43.244Z,15.07
2019-01-20T08:00:14.688Z,14.20
2019-01-20T08:02:43.334Z,14.67
2019-01-20T08:05:12.173Z,15.33
2019-01-20T08:07:40.750Z,14.10
2019-01-20T08:10:12.954Z,14.10
2019-01-20T08:12:41.510Z,13.63
2019-01-20T08:15:12.858Z,14.33
2019-01-20T08:17:41.425Z,13.50
2019-01-20T08:20:12.868Z,13.27
2019-01-20T08:22:41.478Z,13.43
2019-01-20T08:25:11.285Z,14.25
2019-01-20T08:27:39.865Z,11.73
2019-01-20T08:30:12.217Z,13.63
2019-01-20T08:32:40.853Z,13.07
2019-01-20T08:35:11.790Z,13.77
2019-01-20T08:37:40.369Z,13.73
2019-01-20T08:40:14.254Z,15.63
2019-01-20T08:42:42.827Z,19.73
2019-01-20T08:45:14.520Z,18.97
2019-01-20T08:47:44.043Z,15.40
2019-01-20T08:50:13.486Z,15.23
2019-01-20T08:52:42.122Z,15.70
2019-01-20T08:55:10.795Z,15.87
2019-01-20T08:57:39.374Z,16.33
2019-01-20T09:00:11.059Z,15.83
2019-01-20T09:02:39.639Z,17.27
2019-01-20T09:05:08.489Z,16.63
2019-01-20T09:07:37.089Z,17.20
2019-01-20T09:10:08.815Z,17.00
2019-01-20T09:12:38.670Z,17.67
2019-01-20T09:15:08.713Z,17.23
2019-01-20T09:17:37.289Z,18.10
2019-01-20T09:20:11.252Z,17.03
2019-01-20T09:22:39.826Z,18.40
2019-01-20T09:25:10.903Z,18.45
2019-01-20T09:27:39.494Z,22.07
2019-01-20T09:30:19.855Z,25.85
2019-01-20T09:32:48.463Z,20.80
2019-01-20T09:35:17.137Z,18.62
2019-01-20T09:37:45.712Z,19.57
2019-01-20T09:40:16.149Z,19.77
2019-01-20T09:42:44.776Z,19.87
2019-01-20T09:45:20.788Z,19.70
2019-01-20T09:47:49.389Z,19.92
2019-01-20T09:50:18.053Z,18.57
2019-01-20T09:52:47.150Z,20.43
2019-01-20T09:55:15.854Z,22.32
2019-01-20T09:57:45.126Z,21.42
2019-01-20T10:00:25.873Z,21.02
2019-01-20T10:02:54.517Z,21.93
2019-01-20T10:05:23.195Z,21.42
2019-01-20T10:07:51.772Z,23.07
2019-01-20T10:10:20.458Z,23.40
2019-01-20T10:12:49.183Z,22.77
2019-01-20T10:15:18.054Z,23.73
2019-01-20T10:17:46.714Z,23.00
2019-01-20T10:20:20.896Z,22.13
2019-01-20T10:22:49.659Z,20.62
2019-01-20T10:25:18.230Z,21.05
2019-01-20T10:27:46.819Z,22.48
2019-01-20T10:30:30.558Z,20.88
2019-01-20T10:32:59.247Z,21.60
2019-01-20T10:35:32.256Z,21.97
2019-01-20T10:38:02.500Z,24.12
2019-01-20T10:40:32.303Z,23.20
2019-01-20T10:43:01.002Z,24.15
2019-01-20T10:45:29.566Z,23.50
2019-01-20T10:47:58.172Z,29.12
2019-01-20T10:50:26.750Z,32.28
2019-01-20T10:52:55.398Z,24.45
2019-01-20T10:55:24.101Z,24.25
2019-01-20T10:57:52.725Z,22.85
2019-01-20T11:00:33.184Z,24.92
2019-01-20T11:03:01.795Z,24.77
2019-01-20T11:05:32.609Z,23.80
2019-01-20T11:08:00.773Z,22.80
2019-01-20T11:10:29.343Z,24.02
2019-01-20T11:12:57.941Z,22.75
2019-01-20T11:15:26.634Z,24.20
2019-01-20T11:17:55.267Z,24.57
2019-01-20T11:20:24.894Z,23.22
2019-01-20T11:22:54.585Z,24.55
2019-01-20T11:25:32.311Z,23.32
2019-01-20T11:28:00.983Z,22.90
2019-01-20T11:30:29.521Z,22.80
2019-01-20T11:32:58.130Z,24.87
2019-01-20T11:35:26.697Z,23.97
2019-01-20T11:37:55.300Z,23.57
2019-01-20T11:40:23.921Z,23.00
2019-01-20T11:42:52.521Z,22.43
2019-01-20T11:45:23.299Z,23.43
2019-01-20T11:47:51.918Z,23.60
2019-01-20T11:50:20.623Z,21.07
2019-01-20T11:52:49.361Z,22.95
2019-01-20T11:55:23.040Z,23.27
2019-01-20T11:57:51.676Z,22.93
2019-01-20T12:00:33.959Z,22.48
2019-01-20T12:03:02.759Z,24.25
2019-01-20T12:05:32.581Z,23.50
2019-01-20T12:08:01.178Z,22.10
2019-01-20T12:10:29.758Z,22.27
2019-01-20T12:13:02.503Z,22.95
2019-01-20T12:15:31.073Z,22.17
2019-01-20T12:17:59.685Z,22.20
2019-01-20T12:20:28.262Z,24.25
2019-01-20T12:22:56.945Z,22.40
2019-01-20T12:25:25.592Z,23.52
2019-01-20T12:27:54.218Z,27.50
2019-01-20T12:30:34.896Z,30.02
2019-01-20T12:33:03.738Z,21.48
2019-01-20T12:35:32.329Z,22.60
2019-01-20T12:38:00.925Z,23.40
2019-01-20T12:40:32.362Z,21.97
2019-01-20T12:43:00.957Z,20.70
2019-01-20T12:45:29.547Z,21.55
2019-01-20T12:47:58.143Z,20.92
2019-01-20T12:50:26.715Z,21.50
2019-01-20T12:52:55.344Z,22.30
2019-01-20T12:55:24.054Z,21.50
2019-01-20T12:57:52.717Z,22.17
2019-01-20T13:00:21.386Z,20.70
2019-01-20T13:02:50.089Z,20.05
2019-01-20T13:05:18.732Z,21.40
2019-01-20T13:07:47.411Z,22.75
2019-01-20T13:10:18.396Z,22.07
2019-01-20T13:12:47.589Z,23.20
2019-01-20T13:15:18.892Z,21.57
2019-01-20T13:17:47.520Z,22.17
2019-01-20T13:20:21.821Z,21.30
2019-01-20T13:22:50.463Z,20.92
2019-01-20T13:25:21.218Z,21.62
2019-01-20T13:27:49.804Z,20.80
2019-01-20T13:30:20.557Z,19.98
2019-01-20T13:32:49.103Z,18.77
2019-01-20T13:35:18.840Z,19.65
2019-01-20T13:37:49.667Z,19.32
2019-01-20T13:40:21.336Z,19.92
2019-01-20T13:42:49.940Z,19.67
2019-01-20T13:45:18.844Z,20.72
2019-01-20T13:47:48.825Z,20.45
2019-01-20T13:50:19.378Z,20.50
2019-01-20T13:52:48.144Z,21.05
2019-01-20T13:55:17.781Z,20.68
2019-01-20T13:57:46.388Z,20.00
2019-01-20T14:00:20.732Z,21.27
2019-01-20T14:02:49.318Z,19.42
2019-01-20T14:05:18.149Z,20.30
2019-01-20T14:07:46.830Z,20.57
2019-01-20T14:10:18.282Z,20.13
2019-01-20T14:12:46.926Z,19.97
2019-01-20T14:15:16.709Z,20.23
2019-01-20T14:17:46.282Z,20.23
2019-01-20T14:20:25.505Z,18.83
2019-01-20T14:22:54.141Z,19.77
2019-01-20T14:25:29.939Z,19.27
2019-01-20T14:27:58.537Z,18.63
2019-01-20T14:30:30.003Z,19.13
2019-01-20T14:32:58.650Z,19.17
2019-01-20T14:35:27.331Z,18.20
2019-01-20T14:37:55.886Z,18.17
2019-01-20T14:40:24.749Z,17.67
2019-01-20T14:42:54.286Z,18.17
2019-01-20T14:45:23.125Z,18.40
2019-01-20T14:47:51.768Z,17.97
2019-01-20T14:50:25.523Z,18.27
2019-01-20T14:52:55.981Z,18.40
2019-01-20T14:55:26.012Z,19.10
2019-01-20T14:57:54.739Z,18.13
2019-01-20T15:00:34.918Z,17.90
2019-01-20T15:03:03.662Z,16.80
2019-01-20T15:05:32.593Z,18.20
2019-01-20T15:08:01.842Z,20.10
2019-01-20T15:10:30.509Z,18.13
2019-01-20T15:12:59.121Z,17.40
2019-01-20T15:15:30.939Z,17.93
2019-01-20T15:17:59.519Z,18.43
2019-01-20T15:20:28.130Z,18.73
2019-01-20T15:22:56.736Z,17.40
2019-01-20T15:25:25.377Z,18.43
2019-01-20T15:27:54.038Z,17.37
2019-01-20T15:30:28.253Z,17.40
2019-01-20T15:32:57.471Z,17.90
2019-01-20T15:35:26.127Z,17.43
2019-01-20T15:37:54.766Z,18.40
2019-01-20T15:40:26.263Z,17.50
2019-01-20T15:42:55.050Z,17.93
2019-01-20T15:45:24.691Z,18.23
2019-01-20T15:47:53.429Z,18.03
2019-01-20T15:50:30.747Z,18.27
2019-01-20T15:52:59.560Z,18.43
2019-01-20T15:55:28.222Z,18.13
2019-01-20T15:57:56.870Z,17.60
2019-01-20T16:00:27.485Z,19.33
2019-01-20T16:02:56.195Z,18.10
2019-01-20T16:05:26.150Z,17.90
2019-01-20T16:07:54.804Z,18.63
2019-01-20T16:10:23.738Z,18.23
2019-01-20T16:12:53.878Z,18.77
2019-01-20T16:15:27.854Z,18.43
2019-01-20T16:17:56.682Z,17.43
2019-01-20T16:20:26.127Z,17.90
2019-01-20T16:22:54.754Z,17.30
2019-01-20T16:25:34.420Z,17.00
2019-01-20T16:28:03.082Z,17.67
2019-01-20T16:30:33.790Z,17.60
2019-01-20T16:33:02.385Z,16.90
2019-01-20T16:35:32.806Z,19.60
2019-01-20T16:38:02.024Z,45.07
2019-01-20T16:40:30.840Z,31.60
2019-01-20T16:42:59.438Z,32.97
2019-01-20T16:45:41.610Z,60.77
2019-01-20T16:48:04.975Z,39.70
2019-01-20T16:50:33.548Z,19.30
2019-01-20T16:53:02.422Z,22.77
2019-01-20T16:55:31.094Z,19.47
2019-01-20T16:57:59.690Z,19.60
2019-01-20T17:00:33.467Z,20.47
2019-01-20T17:03:02.198Z,18.07
2019-01-20T17:05:30.784Z,21.43
2019-01-20T17:07:59.536Z,18.33
2019-01-20T17:10:31.406Z,18.67
2019-01-20T17:13:00.071Z,19.20
2019-01-20T17:15:30.998Z,18.07
2019-01-20T17:17:59.730Z,18.17
2019-01-20T17:20:28.299Z,18.63
2019-01-20T17:22:56.988Z,18.50
2019-01-20T17:25:25.790Z,18.63
2019-01-20T17:28:00.871Z,18.30
2019-01-20T17:30:34.873Z,18.50
2019-01-20T17:33:04.459Z,17.60
2019-01-20T17:35:33.020Z,17.70
2019-01-20T17:38:01.648Z,19.47
2019-01-20T17:40:30.603Z,18.50
2019-01-20T17:42:59.203Z,17.40
2019-01-20T17:45:30.255Z,16.77
2019-01-20T17:47:59.086Z,17.10
2019-01-20T17:50:30.490Z,18.10
2019-01-20T17:52:59.339Z,17.23
2019-01-20T17:55:27.911Z,17.43
2019-01-20T17:57:57.019Z,17.43
2019-01-20T18:00:29.890Z,19.17
2019-01-20T18:02:58.508Z,18.53
2019-01-20T18:05:27.259Z,18.50
2019-01-20T18:07:55.868Z,18.47
2019-01-20T18:10:24.457Z,22.13
2019-01-20T18:12:53.426Z,18.30
2019-01-20T18:15:27.297Z,19.80
2019-01-20T18:17:56.377Z,18.53
2019-01-20T18:20:33.222Z,18.17
2019-01-20T18:23:01.900Z,19.10
2019-01-20T18:25:30.725Z,17.33
2019-01-20T18:28:00.006Z,18.97
2019-01-20T18:30:30.442Z,17.67
2019-01-20T18:32:59.041Z,17.67
2019-01-20T18:35:28.545Z,18.03
2019-01-20T18:37:57.725Z,17.67
2019-01-20T18:40:27.223Z,18.27
2019-01-20T18:42:56.003Z,17.03
2019-01-20T18:45:27.326Z,18.37
2019-01-20T18:47:56.171Z,18.20
2019-01-20T18:50:26.981Z,18.03
2019-01-20T18:52:55.918Z,18.87
2019-01-20T18:55:24.651Z,18.63
2019-01-20T18:57:53.325Z,18.17
2019-01-20T19:00:30.316Z,18.03
2019-01-20T19:02:58.928Z,17.90
2019-01-20T19:05:27.696Z,19.57
2019-01-20T19:07:56.480Z,20.10
2019-01-20T19:10:25.085Z,19.87
2019-01-20T19:12:53.675Z,18.83
2019-01-20T19:15:23.734Z,19.53
2019-01-20T19:17:52.769Z,22.13
2019-01-20T19:20:23.948Z,22.17
2019-01-20T19:22:54.967Z,23.70
2019-01-20T19:25:23.839Z,19.77
2019-01-20T19:27:53.119Z,18.60
2019-01-20T19:30:24.442Z,18.70
2019-01-20T19:32:53.175Z,19.53
2019-01-20T19:35:22.408Z,18.50
2019-01-20T19:37:50.995Z,19.90
2019-01-20T19:40:19.625Z,18.33
2019-01-20T19:42:48.207Z,18.77
2019-01-20T19:45:19.532Z,18.47
2019-01-20T19:47:48.418Z,19.47
2019-01-20T19:50:17.940Z,19.40
2019-01-20T19:52:46.614Z,19.33
2019-01-20T19:55:18.053Z,20.03
2019-01-20T19:57:46.624Z,20.27
2019-01-20T20:00:20.589Z,20.87
2019-01-20T20:02:49.311Z,18.00
2019-01-20T20:05:19.382Z,19.70
2019-01-20T20:07:48.921Z,19.10
2019-01-20T20:10:19.969Z,18.47
2019-01-20T20:12:48.545Z,19.40
2019-01-20T20:15:22.657Z,17.87
2019-01-20T20:17:51.388Z,18.60
2019-01-20T20:20:21.056Z,17.73
2019-01-20T20:22:50.270Z,16.53
2019-01-20T20:25:21.396Z,17.53
2019-01-20T20:27:50.053Z,17.60
2019-01-20T20:30:23.787Z,17.47
2019-01-20T20:32:52.513Z,19.03
2019-01-20T20:35:21.179Z,17.23
2019-01-20T20:37:50.063Z,19.13
2019-01-20T20:40:20.420Z,17.27
2019-01-20T20:42:49.021Z,16.67
2019-01-20T20:45:22.899Z,17.77
2019-01-20T20:47:51.492Z,17.03
2019-01-20T20:50:20.183Z,19.17
2019-01-20T20:52:48.836Z,16.00
2019-01-20T20:55:17.637Z,14.90
2019-01-20T20:57:46.225Z,15.03
2019-01-20T21:00:17.764Z,14.73
2019-01-20T21:02:46.380Z,15.00
2019-01-20T21:05:15.026Z,16.07
2019-01-20T21:07:43.627Z,14.40
2019-01-20T21:10:15.062Z,16.53
2019-01-20T21:12:43.648Z,14.37
2019-01-20T21:15:14.711Z,20.30
2019-01-20T21:17:48.094Z,18.00
2019-01-20T21:20:16.556Z,14.80
2019-01-20T21:22:45.149Z,14.57
2019-01-20T21:25:14.043Z,14.40
2019-01-20T21:27:42.628Z,11.07
2019-01-20T21:30:27.956Z,13.70
2019-01-20T21:32:56.529Z,12.53
2019-01-20T21:35:25.133Z,12.97
2019-01-20T21:37:53.719Z,13.03
2019-01-20T21:40:22.395Z,14.87
2019-01-20T21:42:51.046Z,13.87
2019-01-20T21:45:19.974Z,14.07
2019-01-20T21:47:48.549Z,14.70
2019-01-20T21:50:20.230Z,14.00
2019-01-20T21:52:48.816Z,12.37
2019-01-20T21:55:17.447Z,13.53
2019-01-20T21:57:46.090Z,14.47
2019-01-20T22:00:17.309Z,14.37
2019-01-20T22:02:46.169Z,13.70
2019-01-20T22:05:14.758Z,16.90
2019-01-20T22:07:43.356Z,16.53
2019-01-20T22:10:14.363Z,15.43
2019-01-20T22:12:42.960Z,14.77
2019-01-20T22:15:13.009Z,14.83
2019-01-20T22:17:41.598Z,14.60
2019-01-20T22:20:15.139Z,14.53
2019-01-20T22:22:43.891Z,12.83
2019-01-20T22:25:13.164Z,14.00
2019-01-20T22:27:42.112Z,13.63
2019-01-20T22:30:22.256Z,14.00
2019-01-20T22:32:50.917Z,14.00
2019-01-20T22:35:19.483Z,13.43
2019-01-20T22:37:48.223Z,12.80
2019-01-20T22:40:18.793Z,13.93
2019-01-20T22:42:47.481Z,12.70
2019-01-20T22:45:23.817Z,12.10
2019-01-20T22:47:55.321Z,10.90
2019-01-20T22:50:24.339Z,12.27
2019-01-20T22:52:52.989Z,13.43
2019-01-20T22:55:21.614Z,13.03
2019-01-20T22:57:50.239Z,12.43
2019-01-20T23:00:24.800Z,12.13
2019-01-20T23:02:53.472Z,13.47
2019-01-20T23:05:22.116Z,13.90
2019-01-20T23:07:50.652Z,13.50
2019-01-20T23:10:19.224Z,13.00
2019-01-20T23:12:47.814Z,12.70
2019-01-20T23:15:16.409Z,13.63
2019-01-20T23:17:45.003Z,13.97
2019-01-20T23:20:17.109Z,15.10
2019-01-20T23:22:45.789Z,14.73
2019-01-20T23:25:14.464Z,15.03
2019-01-20T23:27:43.159Z,14.83
2019-01-20T23:30:14.285Z,13.57
2019-01-20T23:32:42.884Z,13.97
2019-01-20T23:35:11.699Z,13.97
2019-01-20T23:37:40.307Z,12.93
2019-01-20T23:40:14.010Z,13.73
2019-01-20T23:42:42.639Z,13.10
2019-01-20T23:45:12.641Z,13.33
2019-01-20T23:47:41.420Z,12.90
2019-01-20T23:50:14.505Z,13.23
2019-01-20T23:52:43.285Z,13.33
2019-01-20T23:55:12.604Z,13.40
2019-01-20T23:57:41.182Z,14.43
